createdAt,value
2022-08-17T03:48:55.419Z,85.36
2022-08-17T03:52:17.589Z,86.14
2022-08-17T03:55:39.059Z,86.49
2022-08-17T03:58:42.145Z,86.89
2022-08-17T04:01:46.571Z,87.50
2022-08-17T04:04:52.673Z,87.34
2022-08-17T04:07:55.676Z,87.46
2022-08-17T04:11:00.929Z,89.03
2022-08-17T04:14:04.999Z,88.85
2022-08-17T04:17:07.943Z,88.75
2022-08-17T04:20:12.877Z,88.52
2022-08-17T04:23:18.652Z,88.64
2022-08-17T04:26:53.721Z,87.76
2022-08-17T04:29:49.954Z,86.93
2022-08-17T04:33:14.084Z,86.11
2022-08-17T04:36:17.416Z,84.76
2022-08-17T04:39:19.968Z,84.59
2022-08-17T04:42:22.810Z,84.29
2022-08-17T04:45:25.926Z,83.47
2022-08-17T04:48:40.459Z,82.68
2022-08-17T04:51:51.036Z,82.07
2022-08-17T04:54:57.680Z,81.26
2022-08-17T04:58:00.441Z,80.29
2022-08-17T05:01:05.903Z,79.13
2022-08-17T05:04:33.220Z,78.58
2022-08-17T05:07:35.475Z,78.06
2022-08-17T05:10:45.491Z,77.20
2022-08-17T05:13:50.262Z,76.76
2022-08-17T05:16:53.041Z,76.27
2022-08-17T05:19:55.953Z,76.16
2022-08-17T05:23:01.795Z,75.95
2022-08-17T05:26:04.664Z,75.80
2022-08-17T05:29:10.436Z,75.09
2022-08-17T05:32:39.173Z,74.93
2022-08-17T05:35:39.830Z,73.37
2022-08-17T05:38:43.310Z,72.54
2022-08-17T05:41:48.114Z,71.85
2022-08-17T05:44:50.918Z,72.04
2022-08-17T05:47:53.655Z,71.27
2022-08-17T05:51:10.947Z,70.30
2022-08-17T05:54:45.746Z,68.81
2022-08-17T05:58:14.894Z,68.71
2022-08-17T06:01:29.981Z,67.96
2022-08-17T06:05:04.760Z,66.85
2022-08-17T06:08:20.610Z,66.76
2022-08-17T06:11:58.740Z,65.67
2022-08-17T06:15:04.040Z,63.96
2022-08-17T06:18:13.725Z,63.78
2022-08-17T06:21:19.932Z,62.64
2022-08-17T06:24:46.620Z,62.61
2022-08-17T06:27:56.022Z,61.84
2022-08-17T06:31:12.642Z,61.17
2022-08-17T06:34:15.625Z,60.78
2022-08-17T06:37:54.754Z,60.22
2022-08-17T06:41:22.519Z,59.93
2022-08-17T06:45:04.727Z,59.80
2022-08-17T06:48:25.459Z,58.63
2022-08-17T06:51:36.209Z,58.13
2022-08-17T06:58:16.141Z,57.19
2022-08-17T07:01:25.205Z,55.30
2022-08-17T07:04:31.514Z,53.97
2022-08-17T07:07:56.834Z,52.85
2022-08-17T07:11:14.424Z,52.03
2022-08-17T07:14:55.906Z,52.21
2022-08-17T07:18:00.685Z,52.01
2022-08-17T07:21:17.559Z,52.07
2022-08-17T07:24:45.134Z,51.24
2022-08-17T07:35:53.708Z,48.85
2022-08-17T07:38:58.203Z,48.49
2022-08-17T07:42:05.119Z,47.62
2022-08-17T07:45:28.418Z,46.42
2022-08-17T07:48:36.654Z,46.26
2022-08-17T07:51:42.505Z,45.28
2022-08-17T07:54:45.061Z,45.34
2022-08-17T07:57:57.423Z,44.47
2022-08-17T08:01:11.067Z,44.65
2022-08-17T08:04:29.152Z,43.90
2022-08-17T08:07:50.539Z,42.22
2022-08-17T08:11:19.083Z,40.99
2022-08-17T08:14:29.614Z,40.92
2022-08-17T08:17:36.663Z,41.12
2022-08-17T08:20:53.895Z,40.36
2022-08-17T08:24:05.416Z,40.66
2022-08-17T08:27:35.617Z,40.20
2022-08-17T08:30:46.999Z,39.58
2022-08-17T08:34:09.142Z,39.37
2022-08-17T08:37:49.983Z,39.30
2022-08-17T08:41:12.833Z,39.02
2022-08-17T08:45:01.258Z,38.81
2022-08-17T08:48:05.091Z,38.78
2022-08-17T08:51:27.723Z,38.40
2022-08-17T08:54:36.333Z,37.78
2022-08-17T08:57:56.925Z,37.87
2022-08-17T09:01:08.811Z,36.89
2022-08-17T09:05:10.659Z,36.83
2022-08-17T09:08:16.574Z,36.08
2022-08-17T09:12:01.923Z,35.39
2022-08-17T09:15:27.682Z,34.66
2022-08-17T09:19:02.961Z,33.92
2022-08-17T09:22:22.103Z,34.71
2022-08-17T09:25:29.202Z,34.20
2022-08-17T09:28:37.245Z,33.75
2022-08-17T09:31:49.421Z,33.73
2022-08-17T09:35:01.474Z,33.37
2022-08-17T09:38:22.799Z,32.81
2022-08-17T09:41:25.477Z,32.87
2022-08-17T09:44:59.576Z,32.73
2022-08-17T09:48:05.710Z,32.74
2022-08-17T09:51:32.398Z,31.60
2022-08-17T09:54:40.852Z,31.69
2022-08-17T09:58:04.944Z,31.41
2022-08-17T10:01:18.841Z,31.08
2022-08-17T10:04:47.772Z,31.89
2022-08-17T10:08:03.778Z,30.98
2022-08-17T10:11:45.692Z,31.32
2022-08-17T10:15:13.484Z,31.00
2022-08-17T10:18:43.520Z,31.42
2022-08-17T10:22:32.961Z,29.88
2022-08-17T10:26:12.990Z,29.72
2022-08-17T10:29:22.828Z,28.63
2022-08-17T10:32:35.773Z,28.22
2022-08-17T10:35:44.285Z,27.49
2022-08-17T10:38:51.346Z,26.82
2022-08-17T10:42:00.559Z,26.99
2022-08-17T10:45:15.129Z,27.37
2022-08-17T10:48:28.144Z,27.41
2022-08-17T10:51:38.098Z,26.36
2022-08-17T10:54:47.315Z,26.12
2022-08-17T10:57:51.144Z,25.24
2022-08-17T11:00:53.857Z,25.56
2022-08-17T11:03:59.432Z,24.47
2022-08-17T11:07:25.837Z,24.74
2022-08-17T11:10:42.886Z,23.63
2022-08-17T11:14:04.632Z,23.22
2022-08-17T11:17:13.273Z,21.95
2022-08-17T11:20:22.928Z,21.62
2022-08-17T11:23:45.824Z,21.46
2022-08-17T11:27:12.271Z,20.99
2022-08-17T11:30:44.578Z,20.04
2022-08-17T11:33:58.816Z,19.27
2022-08-17T11:37:16.937Z,18.78
2022-08-17T11:40:29.458Z,18.41
2022-08-17T11:43:56.751Z,17.28
2022-08-17T11:48:09.004Z,16.39
2022-08-17T11:51:35.088Z,16.60
2022-08-17T11:54:45.270Z,16.46
2022-08-17T11:58:04.228Z,15.95
2022-08-17T12:01:32.849Z,15.37
2022-08-17T12:04:36.025Z,14.56
2022-08-17T12:07:46.302Z,16.55
2022-08-17T12:12:01.640Z,18.03
2022-08-17T12:15:10.560Z,17.27
2022-08-17T12:18:32.477Z,15.90
2022-08-17T12:21:54.204Z,14.47
2022-08-17T12:25:16.571Z,14.01
2022-08-17T12:28:36.436Z,13.55
2022-08-17T12:31:47.205Z,13.19
2022-08-17T12:34:51.239Z,12.60
2022-08-17T12:37:54.711Z,12.12
2022-08-17T12:40:58.311Z,12.02
2022-08-17T12:44:15.481Z,11.85
2022-08-17T12:47:22.190Z,12.40
2022-08-17T12:50:29.107Z,11.70
2022-08-17T12:53:35.237Z,11.58
2022-08-17T12:56:42.239Z,12.15
2022-08-17T12:59:52.636Z,11.50
2022-08-17T13:03:07.795Z,11.26
2022-08-17T13:06:17.019Z,12.44
2022-08-17T13:09:35.603Z,13.29
2022-08-17T13:12:42.664Z,15.98
2022-08-17T13:16:15.525Z,16.95
2022-08-17T13:19:40.007Z,14.58
2022-08-17T13:22:53.257Z,12.65
2022-08-17T13:26:06.166Z,11.83
2022-08-17T13:29:24.113Z,11.14
2022-08-17T13:32:47.284Z,10.82
2022-08-17T13:35:52.218Z,11.03
2022-08-17T13:39:07.425Z,10.83
2022-08-17T13:42:50.184Z,10.45
2022-08-17T13:46:09.104Z,10.66
2022-08-17T13:49:13.980Z,10.69
2022-08-17T13:52:37.800Z,10.92
2022-08-17T13:56:36.904Z,10.99
2022-08-17T13:59:55.126Z,11.51
2022-08-17T14:03:00.905Z,11.62
2022-08-17T14:06:05.607Z,11.52
2022-08-17T14:09:09.015Z,11.78
2022-08-17T14:12:16.050Z,13.06
2022-08-17T14:15:23.578Z,12.74
2022-08-17T14:18:56.587Z,14.38
2022-08-17T14:22:00.601Z,16.30
2022-08-17T14:25:04.463Z,17.68
2022-08-17T14:28:11.242Z,18.20
2022-08-17T14:31:14.156Z,19.03
2022-08-17T14:34:17.141Z,19.19
2022-08-17T14:37:21.777Z,19.64
2022-08-17T14:40:25.328Z,19.73
2022-08-17T14:43:28.246Z,20.41
2022-08-17T14:46:31.752Z,20.20
2022-08-17T14:49:34.513Z,20.58
2022-08-17T14:52:39.584Z,20.84
2022-08-17T14:55:45.784Z,21.00
2022-08-17T14:58:51.387Z,20.96
2022-08-17T15:01:55.940Z,20.99
2022-08-17T15:05:01.718Z,21.31
2022-08-17T15:08:06.273Z,21.41
2022-08-17T15:11:11.801Z,21.63
2022-08-17T15:14:17.383Z,21.67
2022-08-17T15:17:20.009Z,21.76
2022-08-17T15:20:29.797Z,21.90
2022-08-17T15:23:33.480Z,22.41
2022-08-17T15:26:37.699Z,22.50
2022-08-17T15:29:40.543Z,22.82
